createdAt,value
2022-10-18T00:00:56.502Z,102188.72
2022-10-18T00:03:24.623Z,102189.03
2022-10-18T00:05:52.939Z,102190.88
2022-10-18T00:08:21.606Z,102188.44
2022-10-18T00:10:50.298Z,102182.88
2022-10-18T00:13:18.574Z,102189.44
2022-10-18T00:15:51.621Z,102192.88
2022-10-18T00:18:20.281Z,102183.97
2022-10-18T00:20:57.751Z,102193.88
2022-10-18T00:23:25.873Z,102192.25
2022-10-18T00:26:00.759Z,102198.66
2022-10-18T00:28:28.603Z,102212.00
2022-10-18T00:30:58.120Z,102211.13
2022-10-18T00:33:26.009Z,102207.66
2022-10-18T00:35:54.016Z,102212.56
2022-10-18T00:38:21.824Z,102212.56
2022-10-18T00:40:49.807Z,102212.84
2022-10-18T00:43:19.306Z,102213.13
2022-10-18T00:45:47.175Z,102213.13
2022-10-18T00:48:19.466Z,102210.25
2022-10-18T00:50:49.880Z,102206.25
2022-10-18T00:53:20.564Z,102207.25
2022-10-18T00:55:48.653Z,102213.59
2022-10-18T00:58:19.331Z,102215.84
2022-10-18T01:00:47.258Z,102210.59
2022-10-18T01:03:16.470Z,102209.44
2022-10-18T01:05:47.549Z,102221.00
2022-10-18T01:08:37.462Z,102219.59
2022-10-18T01:11:39.896Z,102222.16
2022-10-18T01:14:20.774Z,102224.28
2022-10-18T01:16:57.557Z,102225.75
2022-10-18T01:20:20.092Z,102229.00
2022-10-18T01:22:52.055Z,102224.72
2022-10-18T01:25:33.453Z,102226.56
2022-10-18T01:28:10.713Z,102222.44
2022-10-18T01:30:49.223Z,102216.75
2022-10-18T01:33:24.977Z,102217.88
2022-10-18T01:35:57.699Z,102212.59
2022-10-18T01:38:27.289Z,102208.28
2022-10-18T01:40:57.145Z,102214.03
2022-10-18T01:43:26.549Z,102212.00
2022-10-18T01:45:57.869Z,102208.88
2022-10-18T01:48:26.585Z,102206.03
2022-10-18T01:50:54.686Z,102221.44
2022-10-18T01:53:28.376Z,102220.28
2022-10-18T01:56:06.790Z,102219.44
2022-10-18T01:58:41.793Z,102208.88
2022-10-18T02:01:19.343Z,102209.16
2022-10-18T02:03:50.567Z,102210.50
2022-10-18T02:06:24.114Z,102209.38
2022-10-18T02:08:56.387Z,102208.13
2022-10-18T02:11:24.475Z,102202.81
2022-10-18T02:13:55.767Z,102212.22
2022-10-18T02:16:29.568Z,102208.91
2022-10-18T02:19:02.624Z,102206.41
2022-10-18T02:21:31.557Z,102199.78
2022-10-18T02:24:01.778Z,102205.94
2022-10-18T02:26:29.726Z,102207.25
2022-10-18T02:28:57.801Z,102217.66
2022-10-18T02:31:32.021Z,102209.25
2022-10-18T02:34:08.149Z,102203.97
2022-10-18T02:36:43.409Z,102226.81
2022-10-18T02:39:15.391Z,102226.81
2022-10-18T02:41:43.968Z,102232.81
2022-10-18T02:44:12.018Z,102237.06
2022-10-18T02:46:43.698Z,102232.88
2022-10-18T02:49:11.750Z,102241.22
2022-10-18T02:51:39.592Z,102231.94
2022-10-18T02:54:08.415Z,102233.03
2022-10-18T02:56:36.621Z,102229.88
2022-10-18T02:59:07.263Z,102224.19
2022-10-18T03:01:36.242Z,102222.47
2022-10-18T03:04:06.461Z,102224.47
2022-10-18T03:06:34.880Z,102244.06
2022-10-18T03:09:03.547Z,102233.59
2022-10-18T03:11:32.003Z,102240.22
2022-10-18T03:13:59.945Z,102251.78
2022-10-18T03:16:27.748Z,102261.78
2022-10-18T03:18:55.565Z,102263.03
2022-10-18T03:21:24.806Z,102261.56
2022-10-18T03:23:52.716Z,102270.00
2022-10-18T03:26:21.506Z,102266.09
2022-10-18T03:28:49.536Z,102263.53
2022-10-18T03:31:17.850Z,102250.22
2022-10-18T03:33:45.796Z,102246.72
2022-10-18T03:36:13.921Z,102247.50
2022-10-18T03:38:43.419Z,102249.66
2022-10-18T03:41:11.548Z,102248.25
2022-10-18T03:43:39.449Z,102246.41
2022-10-18T03:46:07.314Z,102242.03
2022-10-18T03:48:35.341Z,102243.50
2022-10-18T03:51:03.232Z,102249.94
2022-10-18T03:53:31.216Z,102249.78
2022-10-18T03:56:00.557Z,102249.44
2022-10-18T03:58:28.479Z,102242.19
2022-10-18T04:00:56.824Z,102238.03
2022-10-18T04:03:25.103Z,102241.06
2022-10-18T04:05:52.974Z,102240.47
2022-10-18T04:08:21.248Z,102244.44
2022-10-18T04:10:49.194Z,102249.31
2022-10-18T04:13:18.549Z,102249.28
2022-10-18T04:15:46.473Z,102255.22
2022-10-18T04:18:14.310Z,102252.72
2022-10-18T04:20:42.349Z,102260.75
2022-10-18T04:23:10.293Z,102258.41
2022-10-18T04:25:38.173Z,102236.28
2022-10-18T04:28:06.406Z,102245.66
2022-10-18T04:30:35.662Z,102251.22
2022-10-18T04:33:03.511Z,102249.94
2022-10-18T04:35:31.504Z,102249.13
2022-10-18T04:37:59.438Z,102248.06
2022-10-18T04:40:27.342Z,102249.22
2022-10-18T04:42:55.137Z,102251.84
2022-10-18T04:45:22.944Z,102252.53
2022-10-18T04:47:52.422Z,102248.94
2022-10-18T04:50:20.387Z,102239.31
2022-10-18T04:55:23.436Z,102244.06
2022-10-18T04:57:51.351Z,102243.34
2022-10-18T05:00:19.311Z,102248.06
2022-10-18T05:02:47.174Z,102244.38
2022-10-18T05:05:16.475Z,102238.66
2022-10-18T05:07:44.298Z,102238.97
2022-10-18T05:10:12.346Z,102244.31
2022-10-18T05:12:40.279Z,102247.75
2022-10-18T05:15:08.818Z,102254.28
2022-10-18T05:17:37.239Z,102234.41
2022-10-18T05:20:05.613Z,102234.13
2022-10-18T05:22:35.118Z,102234.47
2022-10-18T05:25:03.805Z,102234.13
2022-10-18T05:27:31.887Z,102227.91
2022-10-18T05:30:04.592Z,102239.69
2022-10-18T05:32:33.805Z,102244.41
2022-10-18T05:35:02.345Z,102241.56
2022-10-18T05:37:30.213Z,102228.25
2022-10-18T05:39:59.454Z,102235.16
2022-10-18T05:42:27.374Z,102233.63
2022-10-18T05:44:55.257Z,102239.84
2022-10-18T05:47:23.242Z,102242.41
2022-10-18T05:49:51.307Z,102237.44
2022-10-18T05:52:19.140Z,102240.06
2022-10-18T05:54:47.023Z,102245.44
2022-10-18T05:57:16.250Z,102241.34
2022-10-18T05:59:44.960Z,102244.44
2022-10-18T06:02:13.701Z,102251.72
2022-10-18T06:04:41.849Z,102250.22
2022-10-18T06:07:11.056Z,102252.63
2022-10-18T06:09:39.460Z,102247.28
2022-10-18T06:12:08.984Z,102236.28
2022-10-18T06:14:38.422Z,102229.50
2022-10-18T06:17:06.269Z,102222.59
2022-10-18T06:19:34.143Z,102230.59
2022-10-18T06:22:02.030Z,102236.47
2022-10-18T06:24:29.893Z,102238.00
2022-10-18T06:26:58.529Z,102229.88
2022-10-18T06:29:26.475Z,102234.41
2022-10-18T06:31:55.666Z,102226.25
2022-10-18T06:34:23.523Z,102212.47
2022-10-18T06:36:55.026Z,102208.78
2022-10-18T06:39:26.340Z,102212.09
2022-10-18T06:41:54.554Z,102229.69
2022-10-18T06:44:23.089Z,102231.41
2022-10-18T06:46:51.692Z,102234.94
2022-10-18T06:49:21.284Z,102237.50
2022-10-18T06:51:49.094Z,102244.41
2022-10-18T06:54:18.344Z,102246.97
2022-10-18T06:56:46.805Z,102246.03
2022-10-18T06:59:15.333Z,102243.16
2022-10-18T07:01:43.831Z,102252.44
2022-10-18T07:04:11.842Z,102250.72
2022-10-18T07:06:41.437Z,102247.75
2022-10-18T07:09:09.261Z,102251.16
2022-10-18T07:11:37.224Z,102259.19
2022-10-18T07:14:05.240Z,102257.13
2022-10-18T07:16:34.532Z,102270.56
2022-10-18T07:19:02.667Z,102274.13
2022-10-18T07:21:30.617Z,102275.84
2022-10-18T07:23:59.888Z,102287.41
2022-10-18T07:26:29.835Z,102288.59
2022-10-18T07:29:00.619Z,102291.56
2022-10-18T07:31:29.809Z,102289.56
2022-10-18T07:33:57.981Z,102301.94
2022-10-18T07:36:26.266Z,102298.50
2022-10-18T07:38:54.749Z,102304.03
2022-10-18T07:41:24.323Z,102310.66
2022-10-18T07:43:53.822Z,102312.53
2022-10-18T07:46:25.351Z,102302.00
2022-10-18T07:48:53.722Z,102312.41
2022-10-18T07:51:22.098Z,102307.09
2022-10-18T07:53:50.015Z,102302.72
2022-10-18T07:56:22.725Z,102304.84
2022-10-18T07:58:53.730Z,102301.69
2022-10-18T08:01:22.844Z,102304.91
2022-10-18T08:03:51.239Z,102299.97
2022-10-18T08:06:21.120Z,102297.81
2022-10-18T08:08:49.216Z,102294.88
2022-10-18T08:11:19.180Z,102300.75
2022-10-18T08:13:47.397Z,102286.69
2022-10-18T08:16:18.901Z,102290.56
2022-10-18T08:18:46.898Z,102288.28
2022-10-18T08:21:16.609Z,102289.50
2022-10-18T08:23:44.742Z,102285.81
2022-10-18T08:26:14.784Z,102289.56
2022-10-18T08:28:49.104Z,102280.47
2022-10-18T08:31:23.626Z,102288.84
2022-10-18T08:33:51.580Z,102287.47
2022-10-18T08:36:20.101Z,102293.69
2022-10-18T08:38:49.295Z,102297.75
2022-10-18T08:41:42.761Z,102295.66
2022-10-18T08:44:16.584Z,102295.16
2022-10-18T08:46:49.331Z,102287.25
2022-10-18T08:49:26.555Z,102288.91
2022-10-18T08:51:55.041Z,102283.09
2022-10-18T08:54:30.599Z,102288.25
2022-10-18T08:57:01.795Z,102295.97
2022-10-18T08:59:34.700Z,102291.16
2022-10-18T09:02:17.315Z,102297.16
2022-10-18T09:04:58.013Z,102298.78
2022-10-18T09:07:43.848Z,102299.47
2022-10-18T09:10:25.652Z,102298.25
2022-10-18T09:13:08.591Z,102298.75
2022-10-18T09:15:46.707Z,102305.31
2022-10-18T09:18:33.314Z,102305.03
2022-10-18T09:21:06.416Z,102307.00
2022-10-18T09:23:45.893Z,102305.84
2022-10-18T09:26:18.339Z,102308.88
2022-10-18T09:28:59.975Z,102301.81
2022-10-18T09:31:40.120Z,102294.91
2022-10-18T09:34:15.155Z,102291.22
2022-10-18T09:36:44.676Z,102293.25
2022-10-18T09:39:15.324Z,102291.16
2022-10-18T09:41:49.975Z,102289.06
2022-10-18T09:44:23.120Z,102290.84
2022-10-18T09:46:54.510Z,102290.59
2022-10-18T09:49:28.073Z,102295.28
2022-10-18T09:51:58.090Z,102290.97
2022-10-18T09:54:32.217Z,102291.03
2022-10-18T09:57:05.622Z,102294.91
2022-10-18T09:59:42.427Z,102296.16
2022-10-18T10:02:14.973Z,102299.53
2022-10-18T10:04:44.841Z,102309.28
2022-10-18T10:07:17.509Z,102309.13
2022-10-18T10:09:48.055Z,102308.50
2022-10-18T10:12:41.871Z,102301.31
2022-10-18T10:15:18.860Z,102298.38
2022-10-18T10:17:54.994Z,102313.75
2022-10-18T10:20:26.379Z,102297.88
2022-10-18T10:22:54.611Z,102287.53
2022-10-18T10:25:27.410Z,102293.81
2022-10-18T10:27:55.685Z,102289.16
2022-10-18T10:30:27.643Z,102292.94
2022-10-18T10:32:56.749Z,102293.41
2022-10-18T10:38:25.597Z,102283.59
2022-10-18T10:40:53.796Z,102283.03
2022-10-18T10:43:40.546Z,102268.97
2022-10-18T10:46:10.854Z,102273.25
2022-10-18T10:48:48.434Z,102268.78
2022-10-18T10:51:29.232Z,102268.28
2022-10-18T10:54:03.227Z,102255.22
2022-10-18T10:56:33.358Z,102241.69
2022-10-18T10:59:09.983Z,102240.16
2022-10-18T11:01:37.882Z,102243.34
2022-10-18T11:04:27.350Z,102261.19
2022-10-18T11:07:05.422Z,102261.38
2022-10-18T11:09:49.534Z,102253.56
2022-10-18T11:12:27.394Z,102256.09
2022-10-18T11:15:05.599Z,102255.03
2022-10-18T11:17:37.373Z,102249.22
2022-10-18T11:20:25.815Z,102248.81
2022-10-18T11:23:04.025Z,102250.84
2022-10-18T11:25:47.261Z,102244.66
2022-10-18T11:28:29.476Z,102242.81
2022-10-18T11:31:10.860Z,102247.28
2022-10-18T11:34:08.149Z,102250.72
2022-10-18T11:36:54.777Z,102255.09
2022-10-18T11:39:38.118Z,102250.78
2022-10-18T11:42:15.934Z,102244.53
2022-10-18T11:44:53.388Z,102247.28
2022-10-18T11:47:32.679Z,102240.81
2022-10-18T11:50:12.849Z,102236.53
2022-10-18T11:52:51.993Z,102228.88
2022-10-18T11:55:33.009Z,102223.78
2022-10-18T11:58:13.294Z,102212.06
2022-10-18T12:00:49.928Z,102213.00
2022-10-18T12:03:33.635Z,102226.34
2022-10-18T12:06:03.447Z,102225.09
2022-10-18T12:08:36.369Z,102221.53
2022-10-18T12:11:11.388Z,102228.16
2022-10-18T12:13:45.238Z,102229.19
2022-10-18T12:16:13.957Z,102223.19
2022-10-18T12:21:26.540Z,102232.31
2022-10-18T12:23:56.452Z,102226.44
2022-10-18T12:26:26.171Z,102225.38
2022-10-18T12:29:01.747Z,102217.13
2022-10-18T12:31:34.024Z,102214.41
2022-10-18T12:34:10.727Z,102217.06
2022-10-18T12:36:54.994Z,102206.41
2022-10-18T12:39:33.453Z,102211.88
2022-10-18T12:42:20.016Z,102205.59
2022-10-18T12:45:03.520Z,102199.78
2022-10-18T12:47:31.919Z,102206.78
2022-10-18T12:50:00.697Z,102206.34
2022-10-18T12:52:29.422Z,102203.16
2022-10-18T12:55:08.752Z,102198.75
2022-10-18T12:57:55.275Z,102196.72
2022-10-18T13:00:37.810Z,102201.25
2022-10-18T13:03:20.391Z,102202.69
2022-10-18T13:05:57.812Z,102194.50
2022-10-18T13:08:41.912Z,102203.47
2022-10-18T13:11:29.064Z,102202.63
2022-10-18T13:14:11.918Z,102207.09
2022-10-18T13:16:44.938Z,102212.28
2022-10-18T13:19:19.772Z,102204.41
2022-10-18T13:21:53.352Z,102208.03
2022-10-18T13:24:26.110Z,102199.81
2022-10-18T13:27:35.062Z,102199.09
2022-10-18T13:30:12.809Z,102200.88
2022-10-18T13:32:47.130Z,102206.81
2022-10-18T13:35:29.699Z,102200.94
2022-10-18T13:38:00.390Z,102196.34
2022-10-18T13:40:28.061Z,102190.91
2022-10-18T13:42:55.649Z,102195.97
2022-10-18T13:45:41.872Z,102196.06
2022-10-18T13:48:28.222Z,102201.84
2022-10-18T13:50:59.763Z,102196.13
2022-10-18T13:53:41.171Z,102201.41
2022-10-18T13:56:29.885Z,102202.00
2022-10-18T13:59:14.065Z,102200.81
2022-10-18T14:01:52.768Z,102207.94
2022-10-18T14:04:35.180Z,102209.19
2022-10-18T14:07:04.795Z,102210.16
2022-10-18T14:09:55.001Z,102210.72
2022-10-18T14:12:27.053Z,102219.59
2022-10-18T14:14:57.646Z,102220.47
2022-10-18T14:17:29.477Z,102223.78
2022-10-18T14:19:59.384Z,102233.78
2022-10-18T14:22:30.536Z,102235.75
2022-10-18T14:24:59.930Z,102228.47
2022-10-18T14:27:28.260Z,102233.94
2022-10-18T14:30:09.839Z,102230.69
2022-10-18T14:32:37.795Z,102230.03
2022-10-18T14:35:32.120Z,102237.44
2022-10-18T14:37:54.819Z,102236.75
2022-10-18T14:40:34.646Z,102245.19
2022-10-18T14:43:03.741Z,102241.41
2022-10-18T14:45:31.508Z,102240.56
2022-10-18T14:48:09.618Z,102234.63
2022-10-18T14:50:37.375Z,102235.69
2022-10-18T14:53:06.268Z,102237.03
2022-10-18T14:55:35.632Z,102234.00
2022-10-18T14:58:03.520Z,102232.03
2022-10-18T15:00:34.924Z,102236.56
2022-10-18T15:03:03.740Z,102235.44
2022-10-18T15:05:31.604Z,102231.56
2022-10-18T15:08:00.560Z,102224.91
2022-10-18T15:10:29.737Z,102237.44
2022-10-18T15:13:16.102Z,102227.97
2022-10-18T15:15:44.896Z,102233.09
2022-10-18T15:18:18.406Z,102228.69
2022-10-18T15:20:46.099Z,102234.78
2022-10-18T15:23:22.024Z,102246.28
2022-10-18T15:25:50.303Z,102246.59
2022-10-18T15:28:26.331Z,102241.88
2022-10-18T15:30:54.622Z,102239.03
2022-10-18T15:33:23.402Z,102243.41
2022-10-18T15:35:52.601Z,102248.38
2022-10-18T15:38:26.308Z,102240.66
2022-10-18T15:40:54.437Z,102241.69
2022-10-18T15:43:37.814Z,102236.97
2022-10-18T15:46:07.070Z,102239.03
2022-10-18T15:48:37.058Z,102239.06
2022-10-18T15:51:05.963Z,102238.16
2022-10-18T15:53:35.496Z,102246.69
2022-10-18T15:56:04.494Z,102245.56
2022-10-18T15:58:39.155Z,102238.03
2022-10-18T16:01:12.357Z,102242.53
2022-10-18T16:03:40.380Z,102233.88
2022-10-18T16:06:09.960Z,102234.50
2022-10-18T16:08:42.776Z,102236.25
2022-10-18T16:11:14.596Z,102242.75
2022-10-18T16:13:42.581Z,102239.78
2022-10-18T16:16:14.209Z,102246.91
2022-10-18T16:18:42.469Z,102244.47
2022-10-18T16:21:16.892Z,102240.56
2022-10-18T16:23:44.720Z,102247.47
2022-10-18T16:26:12.917Z,102254.72
2022-10-18T16:28:40.771Z,102253.75
2022-10-18T16:31:08.588Z,102261.72
2022-10-18T16:33:37.571Z,102275.22
2022-10-18T16:36:05.751Z,102270.47
2022-10-18T16:38:35.232Z,102265.69
2022-10-18T16:41:03.981Z,102264.44
2022-10-18T16:43:31.764Z,102266.75
2022-10-18T16:45:59.429Z,102267.41
2022-10-18T16:48:27.552Z,102276.72
2022-10-18T16:50:57.221Z,102278.44
2022-10-18T16:53:25.200Z,102277.19
2022-10-18T16:55:54.807Z,102280.75
2022-10-18T17:00:56.245Z,102280.16
2022-10-18T17:03:24.211Z,102283.97
2022-10-18T17:05:51.830Z,102287.03
2022-10-18T17:08:21.958Z,102290.72
2022-10-18T17:10:52.905Z,102286.56
2022-10-18T17:13:20.751Z,102283.72
2022-10-18T17:15:49.153Z,102283.06
2022-10-18T17:18:18.706Z,102277.66
2022-10-18T17:20:46.504Z,102281.56
2022-10-18T17:23:14.174Z,102290.06
2022-10-18T17:25:57.536Z,102271.75
2022-10-18T17:28:32.450Z,102283.41
2022-10-18T17:31:00.148Z,102287.94
2022-10-18T17:33:27.767Z,102289.44
2022-10-18T17:35:55.408Z,102297.53
2022-10-18T17:38:23.119Z,102300.09
2022-10-18T17:40:54.774Z,102296.75
2022-10-18T17:43:22.433Z,102296.00
2022-10-18T17:45:51.054Z,102297.59
2022-10-18T17:48:18.928Z,102293.06
2022-10-18T17:50:46.831Z,102299.31
2022-10-18T17:53:15.035Z,102301.50
2022-10-18T17:55:42.675Z,102294.25
2022-10-18T17:58:11.708Z,102299.53
2022-10-18T18:00:39.316Z,102307.47
2022-10-18T18:03:07.030Z,102302.41
2022-10-18T18:05:35.277Z,102303.63
2022-10-18T18:08:04.203Z,102301.38
2022-10-18T18:10:33.133Z,102311.84
2022-10-18T18:13:01.143Z,102306.84
2022-10-18T18:15:30.455Z,102313.97
2022-10-18T18:17:58.418Z,102310.28
2022-10-18T18:20:26.400Z,102317.75
2022-10-18T18:22:54.109Z,102309.31
2022-10-18T18:25:21.717Z,102313.38
2022-10-18T18:27:49.416Z,102311.53
2022-10-18T18:30:17.947Z,102314.25
2022-10-18T18:32:47.083Z,102317.47
2022-10-18T18:35:14.698Z,102320.16
2022-10-18T18:37:42.404Z,102326.69
2022-10-18T18:40:10.485Z,102323.25
2022-10-18T18:42:38.123Z,102322.34
2022-10-18T18:45:06.131Z,102318.78
2022-10-18T18:47:35.509Z,102329.41
2022-10-18T18:50:04.818Z,102328.09
2022-10-18T18:52:32.648Z,102331.41
2022-10-18T18:55:00.792Z,102323.31
2022-10-18T18:57:29.012Z,102326.28
2022-10-18T18:59:56.640Z,102319.06
2022-10-18T19:02:24.373Z,102329.56
2022-10-18T19:04:52.000Z,102322.53
2022-10-18T19:07:21.026Z,102328.38
2022-10-18T19:09:50.660Z,102321.44
2022-10-18T19:12:20.613Z,102321.91
2022-10-18T19:14:49.077Z,102319.75
2022-10-18T19:17:16.674Z,102318.69
2022-10-18T19:19:44.303Z,102325.75
2022-10-18T19:22:11.932Z,102327.94
2022-10-18T19:24:40.892Z,102334.13
2022-10-18T19:27:12.412Z,102332.72
2022-10-18T19:29:40.885Z,102329.84
2022-10-18T19:32:11.920Z,102327.38
2022-10-18T19:34:39.551Z,102329.56
2022-10-18T19:37:09.405Z,102334.88
2022-10-18T19:39:37.313Z,102348.19
2022-10-18T19:42:07.299Z,102335.59
2022-10-18T19:44:36.212Z,102335.59
2022-10-18T19:47:04.547Z,102333.13
2022-10-18T19:49:32.253Z,102337.50
2022-10-18T19:52:00.038Z,102340.47
2022-10-18T19:54:27.729Z,102346.81
2022-10-18T19:56:55.386Z,102354.56
2022-10-18T19:59:24.693Z,102359.00
2022-10-18T20:01:52.347Z,102357.16
2022-10-18T20:04:19.990Z,102353.94
2022-10-18T20:06:47.964Z,102350.47
2022-10-18T20:09:19.398Z,102354.34
2022-10-18T20:11:48.533Z,102352.78
2022-10-18T20:14:16.168Z,102358.88
2022-10-18T20:16:45.148Z,102362.66
2022-10-18T20:19:12.756Z,102362.44
2022-10-18T20:21:40.538Z,102363.66
2022-10-18T20:24:09.238Z,102374.06
2022-10-18T20:26:36.896Z,102372.69
2022-10-18T20:29:05.212Z,102377.03
2022-10-18T20:31:35.505Z,102373.13
2022-10-18T20:34:06.528Z,102371.63
2022-10-18T20:36:34.723Z,102370.97
2022-10-18T20:39:02.986Z,102383.81
2022-10-18T20:41:31.633Z,102381.47
2022-10-18T20:44:00.021Z,102385.53
2022-10-18T20:46:28.355Z,102382.84
2022-10-18T20:48:55.959Z,102379.84
2022-10-18T20:51:24.987Z,102374.88
2022-10-18T20:53:53.495Z,102373.63
2022-10-18T20:56:22.498Z,102378.41
2022-10-18T20:58:51.153Z,102376.88
2022-10-18T21:01:19.694Z,102375.38
2022-10-18T21:03:47.971Z,102376.03
2022-10-18T21:06:16.560Z,102377.09
2022-10-18T21:08:45.798Z,102375.72
2022-10-18T21:11:14.079Z,102379.88
2022-10-18T21:13:41.795Z,102369.81
2022-10-18T21:16:09.778Z,102366.16
2022-10-18T21:18:40.257Z,102374.16
2022-10-18T21:21:08.739Z,102368.25
2022-10-18T21:23:36.380Z,102381.31
2022-10-18T21:26:05.385Z,102386.97
2022-10-18T21:28:33.211Z,102383.19
2022-10-18T21:31:08.955Z,102379.09
2022-10-18T21:33:36.570Z,102368.72
2022-10-18T21:36:04.334Z,102367.38
2022-10-18T21:38:32.038Z,102375.44
2022-10-18T21:40:59.639Z,102368.44
2022-10-18T21:43:28.958Z,102363.28
2022-10-18T21:46:00.473Z,102363.19
2022-10-18T21:48:28.438Z,102359.78
2022-10-18T21:50:56.081Z,102357.44
2022-10-18T21:53:23.692Z,102365.75
2022-10-18T21:55:51.508Z,102367.66
2022-10-18T21:58:19.242Z,102366.47
2022-10-18T22:00:48.245Z,102371.84
2022-10-18T22:03:15.945Z,102373.38
2022-10-18T22:05:43.523Z,102373.50
2022-10-18T22:08:11.144Z,102375.59
2022-10-18T22:10:38.758Z,102378.47
2022-10-18T22:13:06.396Z,102374.63
2022-10-18T22:15:34.036Z,102368.66
2022-10-18T22:18:03.033Z,102373.03
2022-10-18T22:20:30.665Z,102371.31
2022-10-18T22:22:58.276Z,102367.97
2022-10-18T22:25:25.854Z,102360.34
2022-10-18T22:27:53.463Z,102349.38
2022-10-18T22:30:21.040Z,102358.09
2022-10-18T22:32:48.693Z,102349.78
2022-10-18T22:35:17.860Z,102341.78
2022-10-18T22:37:45.448Z,102342.81
2022-10-18T22:40:13.292Z,102342.75
2022-10-18T22:42:40.893Z,102339.44
2022-10-18T22:45:08.907Z,102343.09
2022-10-18T22:47:36.823Z,102343.53
2022-10-18T22:50:04.873Z,102328.25
2022-10-18T22:52:33.963Z,102327.78
2022-10-18T22:55:01.790Z,102328.09
2022-10-18T22:57:29.945Z,102333.03
2022-10-18T22:59:57.556Z,102332.19
2022-10-18T23:02:25.177Z,102327.00
2022-10-18T23:04:52.788Z,102333.28
2022-10-18T23:07:20.434Z,102325.00
2022-10-18T23:09:49.409Z,102324.16
2022-10-18T23:12:17.017Z,102324.56
2022-10-18T23:14:44.667Z,102320.06
2022-10-18T23:17:12.285Z,102334.50
2022-10-18T23:19:39.904Z,102330.38
2022-10-18T23:22:07.554Z,102330.47
2022-10-18T23:24:35.175Z,102333.97
2022-10-18T23:27:04.128Z,102331.88
2022-10-18T23:29:31.750Z,102337.34
2022-10-18T23:31:59.383Z,102328.34
2022-10-18T23:34:27.106Z,102334.47
2022-10-18T23:36:54.733Z,102333.09
2022-10-18T23:39:22.387Z,102329.66
2022-10-18T23:41:49.987Z,102320.81
2022-10-18T23:44:19.046Z,102327.59
2022-10-18T23:46:46.708Z,102333.31
2022-10-18T23:49:14.364Z,102325.13
2022-10-18T23:51:41.965Z,102323.97
2022-10-18T23:54:09.631Z,102333.09
2022-10-18T23:56:37.289Z,102337.69
2022-10-18T23:59:04.913Z,102331.03
